createdAt,value
2022-08-19T00:00:22.700Z,22.22
2022-08-19T00:03:08.364Z,22.21
2022-08-19T00:05:53.667Z,22.18
2022-08-19T00:08:39.135Z,22.16
2022-08-19T00:11:28.826Z,22.15
2022-08-19T00:14:16.829Z,22.13
2022-08-19T00:17:03.435Z,22.08
2022-08-19T00:19:49.177Z,22.15
2022-08-19T00:22:34.621Z,22.03
2022-08-19T00:25:30.363Z,21.94
2022-08-19T00:28:15.922Z,21.83
2022-08-19T00:31:01.654Z,21.81
2022-08-19T00:33:46.949Z,21.80
2022-08-19T00:36:33.721Z,21.77
2022-08-19T00:39:19.137Z,21.78
2022-08-19T00:42:05.119Z,21.71
2022-08-19T00:44:51.523Z,21.67
2022-08-19T00:47:37.005Z,21.69
2022-08-19T00:50:23.074Z,21.69
2022-08-19T00:53:08.583Z,21.79
2022-08-19T00:55:57.125Z,21.91
2022-08-19T00:58:42.449Z,21.93
2022-08-19T01:01:27.711Z,21.80
2022-08-19T01:04:13.959Z,21.59
2022-08-19T01:07:00.048Z,21.20
2022-08-19T01:09:46.303Z,21.12
2022-08-19T01:12:31.565Z,21.08
2022-08-19T01:15:20.840Z,20.95
2022-08-19T01:18:09.170Z,20.87
2022-08-19T01:20:58.986Z,20.77
2022-08-19T01:23:45.858Z,20.67
2022-08-19T01:26:31.465Z,20.65
2022-08-19T01:29:18.074Z,20.62
2022-08-19T01:32:03.386Z,20.65
2022-08-19T01:34:48.845Z,20.66
2022-08-19T01:37:53.706Z,20.51
2022-08-19T01:40:40.896Z,20.44
2022-08-19T01:43:27.285Z,20.36
2022-08-19T01:46:13.371Z,20.17
2022-08-19T01:48:59.245Z,20.03
2022-08-19T01:51:44.645Z,19.98
2022-08-19T01:54:30.171Z,20.03
2022-08-19T01:57:16.528Z,19.85
2022-08-19T02:00:05.883Z,19.85
2022-08-19T02:02:57.609Z,19.95
2022-08-19T02:05:44.298Z,19.89
2022-08-19T02:08:31.162Z,19.88
2022-08-19T02:11:27.433Z,19.98
2022-08-19T02:14:12.397Z,20.00
2022-08-19T02:16:57.524Z,20.03
2022-08-19T02:19:43.028Z,19.98
2022-08-19T02:22:28.299Z,19.88
2022-08-19T02:25:15.292Z,19.85
2022-08-19T02:28:00.513Z,19.96
2022-08-19T02:30:47.789Z,20.07
2022-08-19T02:33:33.312Z,20.17
2022-08-19T02:36:20.601Z,20.06
2022-08-19T02:39:06.546Z,20.00
2022-08-19T02:41:52.963Z,19.94
2022-08-19T02:44:38.379Z,19.90
2022-08-19T02:47:23.680Z,19.99
2022-08-19T02:50:08.989Z,19.93
2022-08-19T02:52:54.241Z,19.86
2022-08-19T02:55:49.412Z,20.06
2022-08-19T02:58:34.881Z,19.87
2022-08-19T03:01:33.570Z,19.74
2022-08-19T03:04:20.124Z,19.77
2022-08-19T03:07:07.223Z,19.62
2022-08-19T03:09:56.390Z,19.54
2022-08-19T03:12:41.975Z,19.68
2022-08-19T03:15:27.227Z,19.51
2022-08-19T03:18:13.443Z,19.46
2022-08-19T03:20:58.571Z,19.46
2022-08-19T03:23:44.029Z,19.55
2022-08-19T03:26:30.048Z,19.60
2022-08-19T03:29:30.226Z,19.62
2022-08-19T03:32:32.590Z,19.64
2022-08-19T03:35:18.552Z,19.68
2022-08-19T03:38:05.491Z,19.69
2022-08-19T03:40:50.921Z,19.61
2022-08-19T03:43:38.279Z,19.53
2022-08-19T03:46:29.777Z,19.50
2022-08-19T03:49:15.388Z,19.50
2022-08-19T03:52:03.416Z,19.49
2022-08-19T03:54:48.818Z,19.51
2022-08-19T03:57:35.468Z,19.48
2022-08-19T04:00:20.771Z,19.42
2022-08-19T04:03:06.005Z,19.39
2022-08-19T04:05:51.731Z,19.36
2022-08-19T04:08:37.221Z,19.34
2022-08-19T04:11:43.014Z,19.35
2022-08-19T04:14:34.603Z,19.38
2022-08-19T04:17:20.087Z,19.41
2022-08-19T04:20:07.109Z,19.44
2022-08-19T04:22:52.732Z,19.47
2022-08-19T04:25:44.056Z,19.49
2022-08-19T04:28:29.876Z,19.51
2022-08-19T04:31:21.353Z,19.51
2022-08-19T04:34:09.077Z,19.55
2022-08-19T04:36:56.404Z,19.58
2022-08-19T04:40:02.489Z,19.65
2022-08-19T04:42:47.843Z,19.69
2022-08-19T04:45:39.620Z,19.78
2022-08-19T04:48:29.197Z,19.86
2022-08-19T04:51:16.278Z,19.81
2022-08-19T04:54:05.778Z,19.81
2022-08-19T04:56:53.439Z,19.84
2022-08-19T04:59:39.864Z,19.80
2022-08-19T05:02:25.584Z,19.81
2022-08-19T05:05:11.133Z,19.87
2022-08-19T05:07:56.924Z,19.96
2022-08-19T05:10:42.343Z,20.03
2022-08-19T05:13:28.031Z,20.04
2022-08-19T05:16:14.793Z,20.01
2022-08-19T05:19:18.576Z,20.05
2022-08-19T05:22:22.489Z,20.08
2022-08-19T05:25:14.711Z,20.06
2022-08-19T05:27:59.914Z,20.04
2022-08-19T05:30:47.534Z,20.04
2022-08-19T05:33:33.330Z,20.15
2022-08-19T05:36:20.791Z,20.19
2022-08-19T05:39:08.039Z,20.18
2022-08-19T05:42:01.578Z,20.19
2022-08-19T05:44:47.980Z,20.31
2022-08-19T05:47:33.306Z,20.35
2022-08-19T05:50:18.665Z,20.42
2022-08-19T05:53:03.832Z,20.59
2022-08-19T05:55:48.984Z,20.57
2022-08-19T05:58:36.333Z,20.56
2022-08-19T06:01:22.284Z,20.68
2022-08-19T06:04:08.039Z,20.67
2022-08-19T06:06:54.717Z,20.81
2022-08-19T06:09:41.254Z,20.80
2022-08-19T06:12:35.194Z,20.82
2022-08-19T06:15:22.945Z,20.93
2022-08-19T06:18:08.343Z,20.89
2022-08-19T06:20:56.001Z,20.89
2022-08-19T06:23:41.915Z,20.85
2022-08-19T06:26:28.531Z,20.84
2022-08-19T06:29:23.705Z,20.93
2022-08-19T06:32:09.662Z,21.01
2022-08-19T06:34:54.680Z,21.06
2022-08-19T06:37:43.389Z,21.09
2022-08-19T06:40:28.975Z,21.18
2022-08-19T06:43:16.715Z,21.22
2022-08-19T06:46:04.659Z,21.27
2022-08-19T06:48:54.177Z,21.22
2022-08-19T06:51:42.422Z,21.28
2022-08-19T06:54:30.729Z,21.42
2022-08-19T06:57:16.898Z,21.45
2022-08-19T07:00:03.446Z,21.54
2022-08-19T07:02:54.700Z,21.64
2022-08-19T07:05:45.509Z,21.81
2022-08-19T07:08:31.833Z,21.86
2022-08-19T07:11:22.122Z,21.94
2022-08-19T07:14:19.016Z,21.93
2022-08-19T07:17:08.120Z,21.84
2022-08-19T07:19:54.648Z,21.70
2022-08-19T07:22:41.043Z,21.63
2022-08-19T07:25:32.083Z,21.67
2022-08-19T07:28:24.652Z,21.58
2022-08-19T07:31:17.661Z,21.68
2022-08-19T07:34:08.199Z,21.72
2022-08-19T07:36:54.499Z,21.67
2022-08-19T07:39:40.232Z,21.78
2022-08-19T07:42:25.864Z,22.01
2022-08-19T07:45:11.516Z,22.19
2022-08-19T07:47:57.007Z,22.09
2022-08-19T07:50:42.354Z,22.03
2022-08-19T07:53:27.755Z,22.25
2022-08-19T07:56:14.596Z,22.35
2022-08-19T07:58:59.992Z,22.37
2022-08-19T08:01:45.591Z,22.45
2022-08-19T08:04:50.913Z,22.48
2022-08-19T08:07:54.829Z,22.51
2022-08-19T08:10:40.024Z,22.41
2022-08-19T08:13:28.160Z,22.41
2022-08-19T08:16:14.602Z,22.45
2022-08-19T08:19:00.241Z,22.51
2022-08-19T08:21:46.691Z,22.63
2022-08-19T08:24:31.914Z,22.75
2022-08-19T08:27:17.310Z,22.88
2022-08-19T08:30:07.524Z,22.95
2022-08-19T08:33:02.843Z,23.07
2022-08-19T08:35:48.910Z,22.99
2022-08-19T08:38:39.649Z,23.08
2022-08-19T08:41:44.897Z,23.13
2022-08-19T08:44:44.622Z,23.11
2022-08-19T08:47:42.039Z,23.14
2022-08-19T08:50:37.299Z,23.23
2022-08-19T08:53:29.581Z,23.27
2022-08-19T08:56:18.865Z,23.01
2022-08-19T08:59:10.939Z,22.75
2022-08-19T09:01:56.449Z,22.76
2022-08-19T09:04:41.910Z,22.82
2022-08-19T09:07:39.933Z,22.94
2022-08-19T09:10:54.967Z,23.12
2022-08-19T09:14:01.323Z,23.33
2022-08-19T09:16:46.498Z,23.47
2022-08-19T09:19:31.858Z,23.43
2022-08-19T09:22:25.380Z,23.67
2022-08-19T09:25:14.939Z,23.92
2022-08-19T09:28:05.623Z,24.11
2022-08-19T09:30:57.914Z,24.05
2022-08-19T09:33:45.905Z,23.77
2022-08-19T09:36:36.997Z,23.88
2022-08-19T09:39:22.934Z,23.59
2022-08-19T09:42:16.431Z,23.60
2022-08-19T09:45:10.228Z,23.69
2022-08-19T09:47:55.880Z,24.05
2022-08-19T09:50:51.686Z,24.22
2022-08-19T09:53:39.719Z,24.41
2022-08-19T09:56:25.680Z,24.51
2022-08-19T09:59:15.457Z,24.26
2022-08-19T10:02:00.400Z,24.34
2022-08-19T10:05:07.886Z,23.90
2022-08-19T10:07:53.400Z,23.90
2022-08-19T10:10:39.049Z,23.96
2022-08-19T10:13:30.047Z,23.90
2022-08-19T10:16:20.903Z,23.74
2022-08-19T10:19:06.698Z,23.76
2022-08-19T10:21:51.887Z,24.05
2022-08-19T10:24:37.599Z,24.00
2022-08-19T10:27:23.141Z,23.92
2022-08-19T10:30:10.045Z,23.83
2022-08-19T10:32:56.723Z,23.56
2022-08-19T10:35:42.599Z,23.64
2022-08-19T10:38:51.248Z,23.77
2022-08-19T10:41:41.151Z,23.78
2022-08-19T10:44:32.060Z,23.71
2022-08-19T10:47:25.005Z,23.52
2022-08-19T10:50:30.085Z,23.58
2022-08-19T10:53:15.620Z,23.37
2022-08-19T10:56:19.404Z,23.33
2022-08-19T10:59:05.580Z,23.33
2022-08-19T11:01:51.943Z,23.41
2022-08-19T11:04:41.107Z,23.40
2022-08-19T11:07:27.393Z,23.31
2022-08-19T11:10:20.893Z,23.24
2022-08-19T11:13:06.742Z,23.26
2022-08-19T11:16:07.729Z,23.08
2022-08-19T11:18:59.159Z,22.93
2022-08-19T11:21:47.246Z,22.89
2022-08-19T11:24:35.390Z,22.97
2022-08-19T11:27:20.576Z,23.14
2022-08-19T11:30:08.268Z,23.33
2022-08-19T11:32:58.293Z,23.51
2022-08-19T11:35:43.530Z,23.56
2022-08-19T11:38:29.016Z,23.48
2022-08-19T11:41:17.841Z,23.43
2022-08-19T11:44:05.518Z,23.37
2022-08-19T11:46:51.022Z,23.47
2022-08-19T11:49:37.095Z,23.45
2022-08-19T11:52:22.285Z,23.36
2022-08-19T11:55:08.614Z,23.32
2022-08-19T11:57:54.353Z,23.21
2022-08-19T12:00:40.649Z,23.19
2022-08-19T12:03:28.911Z,23.30
2022-08-19T12:06:17.401Z,23.29
2022-08-19T12:09:06.583Z,23.19
2022-08-19T12:11:51.978Z,23.12
2022-08-19T12:14:37.650Z,23.15
2022-08-19T12:17:24.180Z,23.25
2022-08-19T12:20:12.128Z,23.45
2022-08-19T12:22:57.853Z,23.41
2022-08-19T12:25:52.687Z,23.42
2022-08-19T12:28:38.807Z,23.56
2022-08-19T12:31:23.915Z,23.40
2022-08-19T12:34:09.230Z,23.58
2022-08-19T12:36:55.436Z,23.71
2022-08-19T12:39:45.307Z,23.89
2022-08-19T12:42:31.448Z,24.18
2022-08-19T12:45:16.736Z,24.22
2022-08-19T12:48:02.000Z,24.61
2022-08-19T12:51:13.281Z,24.81
2022-08-19T12:53:58.638Z,24.92
2022-08-19T12:56:44.769Z,25.12
2022-08-19T12:59:30.011Z,25.07
2022-08-19T13:02:15.366Z,25.27
2022-08-19T13:05:00.664Z,24.96
2022-08-19T13:07:46.877Z,24.56
2022-08-19T13:10:35.713Z,25.01
2022-08-19T13:13:22.839Z,25.26
2022-08-19T13:16:12.785Z,25.03
2022-08-19T13:18:58.972Z,24.88
2022-08-19T13:21:44.554Z,24.85
2022-08-19T13:24:33.873Z,24.77
2022-08-19T13:27:19.524Z,24.65
2022-08-19T13:30:25.766Z,24.47
2022-08-19T13:33:16.844Z,24.30
2022-08-19T13:36:02.500Z,24.39
2022-08-19T13:38:47.547Z,24.37
2022-08-19T13:41:33.056Z,24.34
2022-08-19T13:44:19.509Z,24.29
2022-08-19T13:47:07.843Z,24.38
2022-08-19T13:49:53.572Z,24.43
2022-08-19T13:52:40.194Z,24.34
2022-08-19T13:55:26.163Z,24.47
2022-08-19T13:58:12.724Z,24.51
2022-08-19T14:01:00.109Z,24.41
2022-08-19T14:03:45.601Z,24.47
2022-08-19T14:06:33.722Z,24.57
2022-08-19T14:09:19.198Z,24.35
2022-08-19T14:12:05.658Z,24.28
2022-08-19T14:14:50.857Z,24.31
2022-08-19T14:17:39.638Z,24.23
2022-08-19T14:20:26.447Z,24.13
2022-08-19T14:23:14.617Z,24.09
2022-08-19T14:26:08.911Z,24.28
2022-08-19T14:28:58.205Z,24.28
2022-08-19T14:31:45.961Z,24.26
2022-08-19T14:34:32.522Z,24.09
2022-08-19T14:37:17.931Z,24.07
2022-08-19T14:40:04.929Z,24.07
2022-08-19T14:42:50.358Z,24.01
2022-08-19T14:45:41.296Z,23.86
2022-08-19T14:48:29.121Z,23.63
2022-08-19T14:51:15.183Z,23.56
2022-08-19T14:54:00.658Z,23.54
2022-08-19T14:56:46.013Z,23.57
2022-08-19T14:59:31.059Z,23.67
2022-08-19T15:02:33.750Z,23.76
2022-08-19T15:05:21.919Z,23.78
2022-08-19T15:08:09.886Z,23.71
2022-08-19T15:10:56.964Z,23.74
2022-08-19T15:13:43.710Z,23.75
2022-08-19T15:16:29.211Z,23.51
2022-08-19T15:22:17.009Z,23.36
2022-08-19T15:25:07.610Z,23.41
2022-08-19T15:28:12.925Z,23.48
2022-08-19T15:30:58.355Z,23.55
2022-08-19T15:33:45.099Z,23.52
2022-08-19T15:36:30.547Z,23.45
2022-08-19T15:39:15.742Z,23.46
2022-08-19T15:42:01.208Z,23.42
2022-08-19T15:44:47.604Z,23.27
2022-08-19T15:47:34.683Z,23.21
2022-08-19T15:50:21.411Z,23.15
2022-08-19T15:53:10.158Z,23.14
2022-08-19T15:55:55.584Z,23.13
2022-08-19T15:58:59.456Z,22.98
2022-08-19T16:02:03.418Z,23.00
2022-08-19T16:05:07.681Z,22.90
2022-08-19T16:07:53.202Z,22.91
2022-08-19T16:10:39.818Z,22.90
2022-08-19T16:13:27.347Z,22.83
2022-08-19T16:16:12.620Z,22.87
2022-08-19T16:19:00.896Z,22.89
2022-08-19T16:21:49.875Z,23.01
2022-08-19T16:24:35.506Z,22.97
2022-08-19T16:27:22.421Z,22.85
2022-08-19T16:30:08.809Z,22.98
2022-08-19T16:32:54.006Z,22.98
2022-08-19T16:35:39.338Z,22.90
2022-08-19T16:38:25.682Z,22.85
2022-08-19T16:41:11.147Z,22.89
2022-08-19T16:43:56.587Z,22.94
2022-08-19T16:46:42.457Z,22.97
2022-08-19T16:49:53.947Z,22.96
2022-08-19T16:52:36.271Z,22.86
2022-08-19T16:55:24.401Z,22.55
2022-08-19T16:58:09.660Z,22.38
2022-08-19T17:01:03.422Z,22.30
2022-08-19T17:03:51.949Z,22.35
2022-08-19T17:06:39.499Z,22.35
2022-08-19T17:09:25.808Z,22.43
2022-08-19T17:12:12.551Z,22.41
2022-08-19T17:14:58.432Z,22.37
2022-08-19T17:17:43.808Z,22.31
2022-08-19T17:20:31.006Z,22.25
2022-08-19T17:23:16.829Z,22.26
2022-08-19T17:26:02.315Z,22.04
2022-08-19T17:28:50.412Z,22.16
2022-08-19T17:31:35.894Z,22.17
2022-08-19T17:34:21.185Z,22.07
2022-08-19T17:37:06.100Z,22.02
2022-08-19T17:39:51.477Z,21.96
2022-08-19T17:42:37.338Z,21.92
2022-08-19T17:45:23.068Z,21.96
2022-08-19T17:48:09.590Z,21.94
2022-08-19T17:50:54.746Z,21.98
2022-08-19T17:53:40.977Z,21.97
2022-08-19T17:56:28.679Z,21.97
2022-08-19T17:59:15.085Z,22.00
2022-08-19T18:02:00.590Z,22.05
2022-08-19T18:04:48.825Z,22.09
2022-08-19T18:07:34.572Z,21.92
2022-08-19T18:10:20.911Z,21.81
2022-08-19T18:13:16.913Z,21.92
2022-08-19T18:16:04.195Z,21.90
2022-08-19T18:18:49.541Z,21.84
2022-08-19T18:21:36.086Z,21.84
2022-08-19T18:24:21.679Z,21.77
2022-08-19T18:27:07.289Z,21.81
2022-08-19T18:29:59.405Z,21.82
2022-08-19T18:32:46.779Z,21.78
2022-08-19T18:35:32.685Z,21.83
2022-08-19T18:38:39.275Z,21.82
2022-08-19T18:41:43.428Z,21.71
2022-08-19T18:44:47.305Z,21.66
2022-08-19T18:47:51.330Z,21.71
2022-08-19T18:50:39.811Z,21.65
2022-08-19T18:53:30.385Z,21.70
2022-08-19T18:56:17.685Z,21.72
2022-08-19T18:59:03.121Z,21.72
2022-08-19T19:01:52.495Z,21.77
2022-08-19T19:04:38.927Z,21.81
2022-08-19T19:07:24.363Z,21.75
2022-08-19T19:10:09.930Z,21.59
2022-08-19T19:12:55.268Z,21.60
2022-08-19T19:15:43.451Z,21.62
2022-08-19T19:18:29.827Z,21.66
2022-08-19T19:21:14.986Z,21.75
2022-08-19T19:24:01.423Z,21.71
2022-08-19T19:26:48.870Z,21.70
2022-08-19T19:29:38.190Z,21.66
2022-08-19T19:32:27.089Z,21.60
2022-08-19T19:35:13.166Z,21.62
2022-08-19T19:38:06.565Z,21.63
2022-08-19T19:40:51.859Z,21.60
2022-08-19T19:43:40.919Z,21.61
2022-08-19T19:46:30.815Z,21.63
2022-08-19T19:49:16.745Z,21.68
2022-08-19T19:52:04.919Z,21.72
2022-08-19T19:54:54.197Z,21.65
2022-08-19T19:57:42.234Z,21.63
2022-08-19T20:00:36.953Z,21.59
2022-08-19T20:03:22.241Z,21.61
2022-08-19T20:06:12.497Z,21.72
2022-08-19T20:09:17.560Z,21.67
2022-08-19T20:12:08.320Z,21.66
2022-08-19T20:14:55.942Z,21.58
2022-08-19T20:17:42.665Z,21.58
2022-08-19T20:20:31.918Z,21.57
2022-08-19T20:23:25.873Z,21.55
2022-08-19T20:26:32.481Z,21.61
2022-08-19T20:29:39.300Z,21.54
2022-08-19T20:32:26.090Z,21.51
2022-08-19T20:35:13.152Z,21.51
2022-08-19T20:38:00.818Z,21.42
2022-08-19T20:40:46.442Z,21.37
2022-08-19T20:43:31.991Z,21.40
2022-08-19T20:46:17.566Z,21.50
2022-08-19T20:49:02.909Z,21.39
2022-08-19T20:51:51.059Z,21.41
2022-08-19T20:54:36.316Z,21.41
2022-08-19T20:57:21.968Z,21.35
2022-08-19T21:00:12.396Z,21.29
2022-08-19T21:03:02.794Z,21.33
2022-08-19T21:05:47.972Z,21.32
2022-08-19T21:08:33.700Z,21.34
2022-08-19T21:11:20.725Z,21.25
2022-08-19T21:14:06.741Z,21.18
2022-08-19T21:16:52.053Z,21.16
2022-08-19T21:19:40.264Z,21.12
2022-08-19T21:22:27.926Z,21.08
2022-08-19T21:25:13.199Z,21.08
2022-08-19T21:27:58.633Z,21.11
2022-08-19T21:30:44.226Z,21.19
2022-08-19T21:33:31.991Z,21.16
2022-08-19T21:36:17.591Z,21.20
2022-08-19T21:39:04.380Z,21.22
2022-08-19T21:41:49.526Z,21.22
2022-08-19T21:44:35.471Z,21.27
2022-08-19T21:47:22.979Z,21.28
2022-08-19T21:50:08.927Z,21.26
2022-08-19T21:52:54.876Z,21.26
2022-08-19T21:55:40.392Z,21.28
2022-08-19T21:58:28.277Z,21.25
2022-08-19T22:01:16.183Z,21.12
2022-08-19T22:04:01.548Z,21.15
2022-08-19T22:06:47.456Z,21.10
2022-08-19T22:09:33.087Z,21.17
2022-08-19T22:12:33.907Z,21.17
2022-08-19T22:15:21.514Z,21.20
2022-08-19T22:18:08.673Z,21.17
2022-08-19T22:20:54.656Z,21.13
2022-08-19T22:23:41.443Z,21.12
2022-08-19T22:26:27.104Z,21.07
2022-08-19T22:29:15.708Z,21.03
2022-08-19T22:32:23.018Z,20.92
2022-08-19T22:35:08.544Z,20.95
2022-08-19T22:37:53.958Z,20.99
2022-08-19T22:40:42.235Z,20.99
2022-08-19T22:43:30.436Z,20.95
2022-08-19T22:46:17.703Z,20.95
2022-08-19T22:49:03.683Z,20.99
2022-08-19T22:52:07.373Z,20.94
2022-08-19T22:54:56.768Z,20.90
2022-08-19T22:57:42.073Z,20.89
2022-08-19T23:00:28.808Z,20.87
2022-08-19T23:03:13.965Z,20.93
2022-08-19T23:05:59.100Z,20.99
2022-08-19T23:08:44.517Z,21.01
2022-08-19T23:11:29.975Z,21.02
2022-08-19T23:14:21.887Z,21.04
2022-08-19T23:17:06.889Z,21.01
2022-08-19T23:19:52.714Z,20.97
2022-08-19T23:22:39.482Z,20.91
2022-08-19T23:25:27.559Z,20.87
2022-08-19T23:28:31.968Z,20.91
2022-08-19T23:31:17.171Z,20.92
2022-08-19T23:34:03.423Z,20.90
2022-08-19T23:36:50.353Z,20.90
2022-08-19T23:39:38.294Z,20.88
2022-08-19T23:42:25.958Z,20.81
2022-08-19T23:45:11.402Z,20.79
2022-08-19T23:47:58.000Z,20.83
2022-08-19T23:50:44.876Z,20.87
2022-08-19T23:53:30.489Z,20.91
2022-08-19T23:56:15.969Z,20.93
2022-08-19T23:59:01.314Z,20.81
